sensor_id;sensor_type;location;lat;lon;timestamp;pressure;altitude;pressure_sealevel;temperature;humidity
45253;BME280;63171;50.520;30.486;2023-09-19T00:02:07;100377.88;;;20.63;43.97
45253;BME280;63171;50.520;30.486;2023-09-19T00:02:58;100386.19;;;20.50;43.69
45253;BME280;63171;50.520;30.486;2023-09-19T00:03:48;100384.81;;;20.36;43.86
45253;BME280;63171;50.520;30.486;2023-09-19T00:04:39;100386.19;;;20.41;43.80
45253;BME280;63171;50.520;30.486;2023-09-19T00:05:29;100385.50;;;20.48;44.10
45253;BME280;63171;50.520;30.486;2023-09-19T00:06:24;100388.84;;;20.41;43.94
45253;BME280;63171;50.520;30.486;2023-09-19T00:07:15;100389.16;;;20.28;43.87
45253;BME280;63171;50.520;30.486;2023-09-19T00:08:05;100382.16;;;20.36;43.88
45253;BME280;63171;50.520;30.486;2023-09-19T00:08:57;100385.34;;;20.40;43.99
45253;BME280;63171;50.520;30.486;2023-09-19T00:09:48;100389.00;;;20.49;44.03
45253;BME280;63171;50.520;30.486;2023-09-19T00:10:38;100388.69;;;20.52;44.30
45253;BME280;63171;50.520;30.486;2023-09-19T00:11:30;100392.03;;;20.54;44.26
45253;BME280;63171;50.520;30.486;2023-09-19T00:12:21;100386.00;;;20.61;43.91
45253;BME280;63171;50.520;30.486;2023-09-19T00:13:12;100388.25;;;20.56;44.08
45253;BME280;63171;50.520;30.486;2023-09-19T00:14:02;100388.25;;;20.56;43.98
45253;BME280;63171;50.520;30.486;2023-09-19T00:14:54;100388.25;;;20.56;44.25
45253;BME280;63171;50.520;30.486;2023-09-19T00:15:47;100391.31;;;20.61;44.26
45253;BME280;63171;50.520;30.486;2023-09-19T00:16:37;100389.53;;;20.52;43.80
45253;BME280;63171;50.520;30.486;2023-09-19T00:17:28;100386.88;;;20.52;43.87
45253;BME280;63171;50.520;30.486;2023-09-19T00:18:21;100394.38;;;20.66;43.85
45253;BME280;63171;50.520;30.486;2023-09-19T00:19:13;100390.31;;;20.72;44.06
45253;BME280;63171;50.520;30.486;2023-09-19T00:20:06;100386.97;;;20.70;44.13
45253;BME280;63171;50.520;30.486;2023-09-19T00:21:02;100385.34;;;20.77;44.33
45253;BME280;63171;50.520;30.486;2023-09-19T00:21:54;100387.19;;;20.77;44.05
45253;BME280;63171;50.520;30.486;2023-09-19T00:22:43;100391.81;;;20.75;43.87
45253;BME280;63171;50.520;30.486;2023-09-19T00:23:33;100388.47;;;20.73;44.06
45253;BME280;63171;50.520;30.486;2023-09-19T00:24:24;100391.28;;;20.71;44.22
45253;BME280;63171;50.520;30.486;2023-09-19T00:25:14;100385.41;;;20.67;43.91
45253;BME280;63171;50.520;30.486;2023-09-19T00:26:05;100390.72;;;20.67;44.12
45253;BME280;63171;50.520;30.486;2023-09-19T00:26:56;100385.66;;;20.74;43.94
45253;BME280;63171;50.520;30.486;2023-09-19T00:27:47;100384.97;;;20.72;43.95
45253;BME280;63171;50.520;30.486;2023-09-19T00:28:40;100387.69;;;20.62;44.15
45253;BME280;63171;50.520;30.486;2023-09-19T00:29:32;100387.06;;;20.69;44.29
45253;BME280;63171;50.520;30.486;2023-09-19T00:30:22;100387.38;;;20.65;44.32
45253;BME280;63171;50.520;30.486;2023-09-19T00:31:13;100387.22;;;20.67;43.99
45253;BME280;63171;50.520;30.486;2023-09-19T00:32:04;100383.88;;;20.65;44.01
45253;BME280;63171;50.520;30.486;2023-09-19T00:32:56;100383.03;;;20.64;44.03
45253;BME280;63171;50.520;30.486;2023-09-19T00:33:47;100381.91;;;20.67;44.26
45253;BME280;63171;50.520;30.486;2023-09-19T00:34:38;100380.66;;;20.71;44.20
45253;BME280;63171;50.520;30.486;2023-09-19T00:35:28;100384.81;;;20.74;44.04
45253;BME280;63171;50.520;30.486;2023-09-19T00:36:37;100373.09;;;20.66;44.25
45253;BME280;63171;50.520;30.486;2023-09-19T00:37:28;100377.41;;;20.67;44.33
45253;BME280;63171;50.520;30.486;2023-09-19T00:38:20;100381.91;;;20.67;44.16
45253;BME280;63171;50.520;30.486;2023-09-19T00:39:11;100382.66;;;20.59;44.06
45253;BME280;63171;50.520;30.486;2023-09-19T00:40:02;100376.56;;;20.67;44.11
45253;BME280;63171;50.520;30.486;2023-09-19T00:40:54;100383.44;;;20.70;44.22
45253;BME280;63171;50.520;30.486;2023-09-19T00:41:46;100378.47;;;20.57;44.12
45253;BME280;63171;50.520;30.486;2023-09-19T00:42:37;100380.19;;;20.48;44.15
45253;BME280;63171;50.520;30.486;2023-09-19T00:43:28;100372.50;;;20.35;44.33
45253;BME280;63171;50.520;30.486;2023-09-19T00:44:18;100373.78;;;20.31;44.05
45253;BME280;63171;50.520;30.486;2023-09-19T00:45:15;100376.84;;;20.27;44.41
45253;BME280;63171;50.520;30.486;2023-09-19T00:46:06;100373.22;;;20.28;44.20
45253;BME280;63171;50.520;30.486;2023-09-19T00:46:56;100380.09;;;20.30;44.32
45253;BME280;63171;50.520;30.486;2023-09-19T00:47:48;100383.69;;;20.29;44.39
45253;BME280;63171;50.520;30.486;2023-09-19T00:48:40;100387.16;;;20.40;44.64
45253;BME280;63171;50.520;30.486;2023-09-19T00:49:32;100381.78;;;20.22;44.31
45253;BME280;63171;50.520;30.486;2023-09-19T00:50:24;100381.25;;;20.18;44.49
45253;BME280;63171;50.520;30.486;2023-09-19T00:51:15;100387.81;;;20.14;44.50
45253;BME280;63171;50.520;30.486;2023-09-19T00:52:08;100375.50;;;20.13;44.56
45253;BME280;63171;50.520;30.486;2023-09-19T00:53:00;100391.75;;;20.10;44.71
45253;BME280;63171;50.520;30.486;2023-09-19T00:53:50;100382.78;;;20.11;44.40
45253;BME280;63171;50.520;30.486;2023-09-19T00:54:41;100381.41;;;19.97;44.64
45253;BME280;63171;50.520;30.486;2023-09-19T00:55:31;100381.16;;;19.91;44.61
45253;BME280;63171;50.520;30.486;2023-09-19T00:56:21;100381.72;;;19.85;44.85
45253;BME280;63171;50.520;30.486;2023-09-19T00:57:12;100385.38;;;19.74;44.94
45253;BME280;63171;50.520;30.486;2023-09-19T00:58:04;100380.19;;;19.72;44.72
45253;BME280;63171;50.520;30.486;2023-09-19T00:58:56;100375.03;;;19.81;45.06
45253;BME280;63171;50.520;30.486;2023-09-19T00:59:50;100376.69;;;19.82;45.00
45253;BME280;63171;50.520;30.486;2023-09-19T01:00:42;100384.53;;;19.93;45.12
45253;BME280;63171;50.520;30.486;2023-09-19T01:01:33;100381.69;;;20.04;45.19
45253;BME280;63171;50.520;30.486;2023-09-19T01:02:26;100383.75;;;20.20;45.43
45253;BME280;63171;50.520;30.486;2023-09-19T01:03:36;100386.72;;;20.17;45.38
45253;BME280;63171;50.520;30.486;2023-09-19T01:04:27;100372.44;;;20.18;45.13
45253;BME280;63171;50.520;30.486;2023-09-19T01:05:17;100385.06;;;20.06;45.46
45253;BME280;63171;50.520;30.486;2023-09-19T01:06:08;100375.28;;;19.87;45.24
45253;BME280;63171;50.520;30.486;2023-09-19T01:06:59;100377.94;;;19.87;45.19
45253;BME280;63171;50.520;30.486;2023-09-19T01:07:49;100382.44;;;19.77;45.26
45253;BME280;63171;50.520;30.486;2023-09-19T01:08:38;100379.47;;;19.90;45.24
45253;BME280;63171;50.520;30.486;2023-09-19T01:09:29;100377.47;;;20.01;45.42
45253;BME280;63171;50.520;30.486;2023-09-19T01:10:20;100376.34;;;20.14;45.16
45253;BME280;63171;50.520;30.486;2023-09-19T01:11:14;100372.44;;;20.18;45.33
45253;BME280;63171;50.520;30.486;2023-09-19T01:12:08;100375.50;;;20.13;45.52
45253;BME280;63171;50.520;30.486;2023-09-19T01:13:03;100368.81;;;20.09;45.25
45253;BME280;63171;50.520;30.486;2023-09-19T01:14:02;100373.69;;;20.14;45.23
45253;BME280;63171;50.520;30.486;2023-09-19T01:15:03;100366.31;;;19.98;45.60
45253;BME280;63171;50.520;30.486;2023-09-19T01:16:03;100378.63;;;19.99;45.50
45253;BME280;63171;50.520;30.486;2023-09-19T01:17:00;100369.72;;;19.81;45.26
45253;BME280;63171;50.520;30.486;2023-09-19T01:17:59;100372.06;;;19.74;45.29
45253;BME280;63171;50.520;30.486;2023-09-19T01:18:55;100366.22;;;19.70;45.46
45253;BME280;63171;50.520;30.486;2023-09-19T01:20:17;100361.16;;;19.87;45.56
45253;BME280;63171;50.520;30.486;2023-09-19T01:21:18;100362.97;;;19.96;45.58
45253;BME280;63171;50.520;30.486;2023-09-19T01:22:16;100364.34;;;20.00;45.37
45253;BME280;63171;50.520;30.486;2023-09-19T01:23:16;100364.03;;;20.03;45.64
45253;BME280;63171;50.520;30.486;2023-09-19T01:25:34;100370.50;;;20.00;45.86
45253;BME280;63171;50.520;30.486;2023-09-19T01:26:52;100368.88;;;19.70;45.48
45253;BME280;63171;50.520;30.486;2023-09-19T01:28:07;100369.16;;;19.77;45.63
45253;BME280;63171;50.520;30.486;2023-09-19T01:29:17;100365.91;;;19.83;45.79
45253;BME280;63171;50.520;30.486;2023-09-19T01:30:24;100371.09;;;19.85;45.68
45253;BME280;63171;50.520;30.486;2023-09-19T01:31:17;100365.81;;;19.65;45.66
45253;BME280;63171;50.520;30.486;2023-09-19T01:32:10;100370.28;;;19.65;45.74
45253;BME280;63171;50.520;30.486;2023-09-19T01:33:21;100359.09;;;19.61;45.89
45253;BME280;63171;50.520;30.486;2023-09-19T01:34:12;100360.75;;;19.62;46.00
45253;BME280;63171;50.520;30.486;2023-09-19T01:35:04;100366.22;;;19.51;45.94
45253;BME280;63171;50.520;30.486;2023-09-19T01:35:53;100369.41;;;19.35;45.89
45253;BME280;63171;50.520;30.486;2023-09-19T01:36:47;100372.78;;;19.28;46.01
45253;BME280;63171;50.520;30.486;2023-09-19T01:37:37;100363.13;;;19.17;46.03
45253;BME280;63171;50.520;30.486;2023-09-19T01:38:27;100361.41;;;19.06;45.70
45253;BME280;63171;50.520;30.486;2023-09-19T01:39:17;100363.22;;;19.06;45.83
45253;BME280;63171;50.520;30.486;2023-09-19T01:40:11;100369.81;;;19.21;46.16
45253;BME280;63171;50.520;30.486;2023-09-19T01:41:10;100361.03;;;19.30;46.09
45253;BME280;63171;50.520;30.486;2023-09-19T01:42:07;100364.94;;;19.26;46.06
45253;BME280;63171;50.520;30.486;2023-09-19T01:43:08;100366.88;;;19.14;45.99
45253;BME280;63171;50.520;30.486;2023-09-19T01:44:03;100360.19;;;19.10;46.12
45253;BME280;63171;50.520;30.486;2023-09-19T01:45:02;100368.00;;;19.12;46.03
45253;BME280;63171;50.520;30.486;2023-09-19T01:45:59;100366.59;;;19.17;46.32
45253;BME280;63171;50.520;30.486;2023-09-19T01:46:55;100365.34;;;19.12;46.31
45253;BME280;63171;50.520;30.486;2023-09-19T01:47:51;100363.94;;;19.17;46.29
45253;BME280;63171;50.520;30.486;2023-09-19T01:48:48;100362.41;;;19.15;46.11
45253;BME280;63171;50.520;30.486;2023-09-19T01:49:44;100358.50;;;19.19;46.28
45253;BME280;63171;50.520;30.486;2023-09-19T01:50:42;100359.19;;;19.21;46.41
45253;BME280;63171;50.520;30.486;2023-09-19T01:51:38;100360.59;;;19.15;46.31
45253;BME280;63171;50.520;30.486;2023-09-19T01:52:38;100356.41;;;19.13;46.25
45253;BME280;63171;50.520;30.486;2023-09-19T01:53:35;100363.66;;;19.20;46.54
45253;BME280;63171;50.520;30.486;2023-09-19T01:54:30;100364.50;;;19.21;46.51
45253;BME280;63171;50.520;30.486;2023-09-19T01:55:22;100354.03;;;19.10;46.41
45253;BME280;63171;50.520;30.486;2023-09-19T01:56:23;100362.25;;;19.07;46.59
45253;BME280;63171;50.520;30.486;2023-09-19T01:57:25;100354.31;;;18.97;46.32
45253;BME280;63171;50.520;30.486;2023-09-19T01:58:21;100352.44;;;18.78;46.43
45253;BME280;63171;50.520;30.486;2023-09-19T01:59:17;100354.94;;;18.70;46.22
45253;BME280;63171;50.520;30.486;2023-09-19T02:00:13;100357.91;;;18.86;46.45
45253;BME280;63171;50.520;30.486;2023-09-19T02:01:06;100354.81;;;18.91;46.60
45253;BME280;63171;50.520;30.486;2023-09-19T02:01:58;100349.66;;;18.89;46.43
45253;BME280;63171;50.520;30.486;2023-09-19T02:02:49;100354.41;;;18.86;46.56
45253;BME280;63171;50.520;30.486;2023-09-19T02:03:40;100355.38;;;18.85;46.43
45253;BME280;63171;50.520;30.486;2023-09-19T02:04:32;100349.91;;;18.77;46.55
45253;BME280;63171;50.520;30.486;2023-09-19T02:05:25;100354.56;;;18.84;46.49
45253;BME280;63171;50.520;30.486;2023-09-19T02:06:15;100365.03;;;18.86;46.48
45253;BME280;63171;50.520;30.486;2023-09-19T02:07:06;100354.66;;;18.83;46.62
45253;BME280;63171;50.520;30.486;2023-09-19T02:07:57;100353.97;;;18.81;46.51
45253;BME280;63171;50.520;30.486;2023-09-19T02:08:47;100352.84;;;18.74;46.48
45253;BME280;63171;50.520;30.486;2023-09-19T02:09:38;100342.63;;;18.69;46.58
45253;BME280;63171;50.520;30.486;2023-09-19T02:10:29;100349.06;;;18.76;46.64
45253;BME280;63171;50.520;30.486;2023-09-19T02:11:19;100343.94;;;18.84;46.73
45253;BME280;63171;50.520;30.486;2023-09-19T02:12:09;100341.66;;;18.80;46.81
45253;BME280;63171;50.520;30.486;2023-09-19T02:13:00;100344.31;;;18.70;46.70
45253;BME280;63171;50.520;30.486;2023-09-19T02:13:50;100334.78;;;18.68;46.64
45253;BME280;63171;50.520;30.486;2023-09-19T02:14:43;100343.91;;;18.75;46.62
45253;BME280;63171;50.520;30.486;2023-09-19T02:15:34;100342.78;;;18.77;46.87
45253;BME280;63171;50.520;30.486;2023-09-19T02:16:26;100346.69;;;18.73;46.82
45253;BME280;63171;50.520;30.486;2023-09-19T02:17:16;100337.47;;;18.77;46.74
45253;BME280;63171;50.520;30.486;2023-09-19T02:18:07;100338.75;;;18.73;46.75
45253;BME280;63171;50.520;30.486;2023-09-19T02:18:56;100336.75;;;18.66;46.80
45253;BME280;63171;50.520;30.486;2023-09-19T02:19:47;100334.78;;;18.68;46.77
45253;BME280;63171;50.520;30.486;2023-09-19T02:20:38;100337.91;;;18.73;47.05
45253;BME280;63171;50.520;30.486;2023-09-19T02:21:27;100339.25;;;18.67;46.92
45253;BME280;63171;50.520;30.486;2023-09-19T02:22:18;100338.19;;;18.70;46.78
45253;BME280;63171;50.520;30.486;2023-09-19T02:23:10;100333.56;;;18.81;47.08
45253;BME280;63171;50.520;30.486;2023-09-19T02:24:00;100331.34;;;18.77;46.96
45253;BME280;63171;50.520;30.486;2023-09-19T02:24:52;100325.75;;;18.70;46.99
45253;BME280;63171;50.520;30.486;2023-09-19T02:25:43;100323.94;;;18.71;46.89
45253;BME280;63171;50.520;30.486;2023-09-19T02:26:34;100329.94;;;18.73;47.08
45253;BME280;63171;50.520;30.486;2023-09-19T02:27:25;100333.56;;;18.72;47.12
45253;BME280;63171;50.520;30.486;2023-09-19T02:28:15;100337.72;;;18.65;47.01
45253;BME280;63171;50.520;30.486;2023-09-19T02:29:06;100332.31;;;18.76;47.27
45253;BME280;63171;50.520;30.486;2023-09-19T02:29:55;100334.41;;;18.82;47.19
45253;BME280;63171;50.520;30.486;2023-09-19T02:30:47;100327.44;;;18.90;47.21
45253;BME280;63171;50.520;30.486;2023-09-19T02:31:41;100333.59;;;18.91;47.24
45253;BME280;63171;50.520;30.486;2023-09-19T02:32:30;100335.56;;;18.99;47.00
45253;BME280;63171;50.520;30.486;2023-09-19T02:33:24;100322.28;;;18.89;47.27
45253;BME280;63171;50.520;30.486;2023-09-19T02:34:16;100323.78;;;18.82;47.06
45253;BME280;63171;50.520;30.486;2023-09-19T02:35:07;100328.25;;;18.81;47.27
45253;BME280;63171;50.520;30.486;2023-09-19T02:36:00;100322.13;;;18.81;47.28
45253;BME280;63171;50.520;30.486;2023-09-19T02:36:51;100328.25;;;18.81;47.17
45253;BME280;63171;50.520;30.486;2023-09-19T02:37:43;100324.78;;;18.81;47.24
45253;BME280;63171;50.520;30.486;2023-09-19T02:38:34;100326.06;;;18.86;47.14
45253;BME280;63171;50.520;30.486;2023-09-19T02:39:24;100332.75;;;18.90;47.21
45253;BME280;63171;50.520;30.486;2023-09-19T02:40:14;100323.97;;;18.90;47.30
45253;BME280;63171;50.520;30.486;2023-09-19T02:41:08;100318.78;;;18.88;47.26
45253;BME280;63171;50.520;30.486;2023-09-19T02:42:01;100323.97;;;18.90;47.34
45253;BME280;63171;50.520;30.486;2023-09-19T02:42:54;100313.19;;;18.82;47.25
45253;BME280;63171;50.520;30.486;2023-09-19T02:43:46;100318.34;;;18.74;47.30
45253;BME280;63171;50.520;30.486;2023-09-19T02:44:37;100319.84;;;18.67;47.30
45253;BME280;63171;50.520;30.486;2023-09-19T02:45:27;100322.66;;;18.65;47.36
45253;BME280;63171;50.520;30.486;2023-09-19T02:46:17;100316.97;;;18.70;47.47
45253;BME280;63171;50.520;30.486;2023-09-19T02:47:10;100314.84;;;18.73;47.52
45253;BME280;63171;50.520;30.486;2023-09-19T02:48:00;100314.16;;;18.71;47.55
45253;BME280;63171;50.520;30.486;2023-09-19T02:48:51;100312.34;;;18.72;47.52
45253;BME280;63171;50.520;30.486;2023-09-19T02:49:41;100316.22;;;18.68;47.57
45253;BME280;63171;50.520;30.486;2023-09-19T02:50:33;100319.81;;;18.57;47.77
45253;BME280;63171;50.520;30.486;2023-09-19T02:51:23;100317.41;;;18.54;47.67
45253;BME280;63171;50.520;30.486;2023-09-19T02:52:13;100317.03;;;18.58;47.86
45253;BME280;63171;50.520;30.486;2023-09-19T02:53:03;100317.03;;;18.58;47.94
45253;BME280;63171;50.520;30.486;2023-09-19T02:53:53;100312.44;;;18.60;47.81
45253;BME280;63171;50.520;30.486;2023-09-19T02:54:45;100316.88;;;18.60;47.93
45253;BME280;63171;50.520;30.486;2023-09-19T02:55:34;100318.00;;;18.57;47.89
45253;BME280;63171;50.520;30.486;2023-09-19T02:56:24;100310.56;;;18.51;48.05
45253;BME280;63171;50.520;30.486;2023-09-19T02:57:15;100318.38;;;18.53;48.02
45253;BME280;63171;50.520;30.486;2023-09-19T02:58:07;100313.78;;;18.55;48.25
45253;BME280;63171;50.520;30.486;2023-09-19T02:59:00;100309.91;;;18.59;48.28
45253;BME280;63171;50.520;30.486;2023-09-19T02:59:49;100309.22;;;18.57;48.23
45253;BME280;63171;50.520;30.486;2023-09-19T03:00:40;100309.31;;;18.55;48.44
45253;BME280;63171;50.520;30.486;2023-09-19T03:01:32;100314.50;;;18.57;48.18
45253;BME280;63171;50.520;30.486;2023-09-19T03:02:23;100314.19;;;18.50;48.27
45253;BME280;63171;50.520;30.486;2023-09-19T03:03:13;100303.06;;;18.56;48.53
45253;BME280;63171;50.520;30.486;2023-09-19T03:04:05;100310.28;;;18.45;48.38
45253;BME280;63171;50.520;30.486;2023-09-19T03:05:00;100306.94;;;18.52;48.50
45253;BME280;63171;50.520;30.486;2023-09-19T03:05:50;100308.63;;;18.53;48.80
45253;BME280;63171;50.520;30.486;2023-09-19T03:06:42;100306.81;;;18.54;48.60
45253;BME280;63171;50.520;30.486;2023-09-19T03:07:33;100305.31;;;18.61;48.69
45253;BME280;63171;50.520;30.486;2023-09-19T03:08:24;100309.53;;;18.64;48.68
45253;BME280;63171;50.520;30.486;2023-09-19T03:09:14;100302.41;;;18.64;48.73
45253;BME280;63171;50.520;30.486;2023-09-19T03:10:06;100311.72;;;18.58;48.75
45253;BME280;63171;50.520;30.486;2023-09-19T03:10:56;100311.88;;;18.57;48.82
45253;BME280;63171;50.520;30.486;2023-09-19T03:11:46;100307.50;;;18.56;48.97
45253;BME280;63171;50.520;30.486;2023-09-19T03:12:36;100308.09;;;18.59;48.86
45253;BME280;63171;50.520;30.486;2023-09-19T03:13:28;100312.56;;;18.59;48.93
45253;BME280;63171;50.520;30.486;2023-09-19T03:14:20;100307.50;;;18.56;48.96
45253;BME280;63171;50.520;30.486;2023-09-19T03:15:13;100307.91;;;18.51;49.00
45253;BME280;63171;50.520;30.486;2023-09-19T03:16:06;100309.31;;;18.46;48.90
45253;BME280;63171;50.520;30.486;2023-09-19T03:16:56;100304.28;;;18.52;49.18
45253;BME280;63171;50.520;30.486;2023-09-19T03:17:48;100302.75;;;18.50;49.18
45253;BME280;63171;50.520;30.486;2023-09-19T03:18:42;100306.94;;;18.52;49.47
45253;BME280;63171;50.520;30.486;2023-09-19T03:19:32;100309.88;;;18.49;49.34
45253;BME280;63171;50.520;30.486;2023-09-19T03:20:23;100304.72;;;18.48;49.21
45253;BME280;63171;50.520;30.486;2023-09-19T03:21:13;100301.06;;;18.49;49.19
45253;BME280;63171;50.520;30.486;2023-09-19T03:22:03;100301.34;;;18.46;49.42
45253;BME280;63171;50.520;30.486;2023-09-19T03:22:54;100304.28;;;18.52;49.50
45253;BME280;63171;50.520;30.486;2023-09-19T03:23:45;100293.00;;;18.60;49.54
45253;BME280;63171;50.520;30.486;2023-09-19T03:24:35;100302.13;;;18.67;49.46
45253;BME280;63171;50.520;30.486;2023-09-19T03:25:28;100301.16;;;18.68;49.48
45253;BME280;63171;50.520;30.486;2023-09-19T03:26:18;100295.97;;;18.67;49.74
45253;BME280;63171;50.520;30.486;2023-09-19T03:27:09;100299.13;;;18.51;49.45
45253;BME280;63171;50.520;30.486;2023-09-19T03:28:00;100308.34;;;18.47;49.49
45253;BME280;63171;50.520;30.486;2023-09-19T03:28:50;100299.81;;;18.43;49.59
45253;BME280;63171;50.520;30.486;2023-09-19T03:29:40;100302.47;;;18.43;49.82
45253;BME280;63171;50.520;30.486;2023-09-19T03:30:31;100299.25;;;18.49;49.61
45253;BME280;63171;50.520;30.486;2023-09-19T03:31:24;100301.38;;;18.55;49.78
45253;BME280;63171;50.520;30.486;2023-09-19T03:32:15;100301.38;;;18.55;49.84
45253;BME280;63171;50.520;30.486;2023-09-19T03:33:06;100304.00;;;18.55;49.71
45253;BME280;63171;50.520;30.486;2023-09-19T03:33:57;100291.59;;;18.56;49.83
45253;BME280;63171;50.520;30.486;2023-09-19T03:34:48;100295.81;;;18.58;49.89
45253;BME280;63171;50.520;30.486;2023-09-19T03:35:39;100297.34;;;18.61;49.93
45253;BME280;63171;50.520;30.486;2023-09-19T03:36:30;100300.31;;;18.68;49.89
45253;BME280;63171;50.520;30.486;2023-09-19T03:37:21;100296.56;;;18.70;50.05
45253;BME280;63171;50.520;30.486;2023-09-19T03:38:12;100294.47;;;18.74;50.15
45253;BME280;63171;50.520;30.486;2023-09-19T03:39:02;100296.81;;;18.67;49.91
45253;BME280;63171;50.520;30.486;2023-09-19T03:39:54;100297.50;;;18.69;50.02
45253;BME280;63171;50.520;30.486;2023-09-19T03:40:44;100298.50;;;18.68;49.92
45253;BME280;63171;50.520;30.486;2023-09-19T03:41:34;100293.91;;;18.70;50.16
45253;BME280;63171;50.520;30.486;2023-09-19T03:42:26;100304.25;;;18.73;49.97
45253;BME280;63171;50.520;30.486;2023-09-19T03:43:17;100302.16;;;18.77;50.07
45253;BME280;63171;50.520;30.486;2023-09-19T03:44:07;100299.22;;;18.70;50.02
45253;BME280;63171;50.520;30.486;2023-09-19T03:44:58;100300.31;;;18.68;50.08
45253;BME280;63171;50.520;30.486;2023-09-19T03:45:50;100305.63;;;18.68;50.10
45253;BME280;63171;50.520;30.486;2023-09-19T03:46:43;100300.84;;;18.61;50.00
45253;BME280;63171;50.520;30.486;2023-09-19T03:47:33;100299.22;;;18.70;50.12
45253;BME280;63171;50.520;30.486;2023-09-19T03:48:27;100295.28;;;18.65;50.31
45253;BME280;63171;50.520;30.486;2023-09-19T03:49:16;100295.72;;;18.70;50.54
45253;BME280;63171;50.520;30.486;2023-09-19T03:50:07;100289.91;;;18.55;50.25
45253;BME280;63171;50.520;30.486;2023-09-19T03:51:00;100296.91;;;18.56;50.39
45253;BME280;63171;50.520;30.486;2023-09-19T03:51:50;100295.63;;;18.50;50.50
45253;BME280;63171;50.520;30.486;2023-09-19T03:52:41;100291.88;;;18.43;50.47
45253;BME280;63171;50.520;30.486;2023-09-19T03:53:31;100299.50;;;18.37;50.42
45253;BME280;63171;50.520;30.486;2023-09-19T03:54:21;100291.56;;;18.37;50.48
45253;BME280;63171;50.520;30.486;2023-09-19T03:55:11;100296.28;;;18.43;50.66
45253;BME280;63171;50.520;30.486;2023-09-19T03:56:02;100301.63;;;18.52;50.65
45253;BME280;63171;50.520;30.486;2023-09-19T03:56:56;100299.00;;;18.52;50.76
45253;BME280;63171;50.520;30.486;2023-09-19T03:57:48;100298.28;;;18.50;50.81
45253;BME280;63171;50.520;30.486;2023-09-19T03:58:39;100295.50;;;18.52;50.92
45253;BME280;63171;50.520;30.486;2023-09-19T03:59:29;100293.13;;;18.49;50.80
45253;BME280;63171;50.520;30.486;2023-09-19T04:00:19;100294.53;;;18.53;50.93
45253;BME280;63171;50.520;30.486;2023-09-19T04:01:11;100294.97;;;18.58;50.96
45253;BME280;63171;50.520;30.486;2023-09-19T04:02:02;100291.06;;;18.62;51.14
45253;BME280;63171;50.520;30.486;2023-09-19T04:02:53;100289.69;;;18.68;51.09
45253;BME280;63171;50.520;30.486;2023-09-19T04:03:47;100285.50;;;18.65;51.23
45253;BME280;63171;50.520;30.486;2023-09-19T04:04:37;100293.16;;;18.58;51.15
45253;BME280;63171;50.520;30.486;2023-09-19T04:05:27;100293.84;;;18.60;51.35
45253;BME280;63171;50.520;30.486;2023-09-19T04:06:18;100288.09;;;18.55;51.37
45253;BME280;63171;50.520;30.486;2023-09-19T04:07:08;100286.88;;;18.59;51.35
45253;BME280;63171;50.520;30.486;2023-09-19T04:07:58;100292.56;;;18.55;51.41
45253;BME280;63171;50.520;30.486;2023-09-19T04:08:48;100289.97;;;18.65;51.41
45253;BME280;63171;50.520;30.486;2023-09-19T04:09:38;100287.44;;;18.63;51.27
45253;BME280;63171;50.520;30.486;2023-09-19T04:10:28;100284.91;;;18.61;51.49
45253;BME280;63171;50.520;30.486;2023-09-19T04:11:19;100286.19;;;18.57;51.44
45253;BME280;63171;50.520;30.486;2023-09-19T04:12:09;100284.50;;;18.56;51.52
45253;BME280;63171;50.520;30.486;2023-09-19T04:12:59;100282.41;;;18.60;51.56
45253;BME280;63171;50.520;30.486;2023-09-19T04:13:51;100281.28;;;18.63;51.61
45253;BME280;63171;50.520;30.486;2023-09-19T04:14:40;100282.25;;;18.61;51.58
45253;BME280;63171;50.520;30.486;2023-09-19T04:15:30;100287.44;;;18.63;51.57
45253;BME280;63171;50.520;30.486;2023-09-19T04:16:21;100288.47;;;18.72;51.75
45253;BME280;63171;50.520;30.486;2023-09-19T04:17:11;100282.06;;;18.84;51.87
45253;BME280;63171;50.520;30.486;2023-09-19T04:18:01;100286.81;;;18.90;52.02
45253;BME280;63171;50.520;30.486;2023-09-19T04:18:54;100284.84;;;18.92;51.85
45253;BME280;63171;50.520;30.486;2023-09-19T04:19:44;100287.09;;;18.97;51.99
45253;BME280;63171;50.520;30.486;2023-09-19T04:20:35;100292.78;;;18.82;51.85
45253;BME280;63171;50.520;30.486;2023-09-19T04:21:25;100290.56;;;18.78;51.77
45253;BME280;63171;50.520;30.486;2023-09-19T04:22:15;100286.09;;;18.78;51.96
45253;BME280;63171;50.520;30.486;2023-09-19T04:23:05;100294.34;;;18.75;51.83
45253;BME280;63171;50.520;30.486;2023-09-19T04:23:56;100291.69;;;18.85;52.07
45253;BME280;63171;50.520;30.486;2023-09-19T04:24:46;100296.72;;;18.88;51.98
45253;BME280;63171;50.520;30.486;2023-09-19T04:25:37;100281.06;;;18.95;52.11
45253;BME280;63171;50.520;30.486;2023-09-19T04:26:30;100287.78;;;18.99;52.08
45253;BME280;63171;50.520;30.486;2023-09-19T04:27:21;100283.44;;;19.07;52.61
45253;BME280;63171;50.520;30.486;2023-09-19T04:28:12;100286.09;;;19.07;52.15
45253;BME280;63171;50.520;30.486;2023-09-19T04:29:02;100285.00;;;19.10;52.13
45253;BME280;63171;50.520;30.486;2023-09-19T04:29:54;100286.25;;;19.15;52.18
45253;BME280;63171;50.520;30.486;2023-09-19T04:30:48;100289.06;;;19.24;52.18
45253;BME280;63171;50.520;30.486;2023-09-19T04:31:39;100282.03;;;19.32;52.16
45253;BME280;63171;50.520;30.486;2023-09-19T04:32:29;100286.22;;;19.35;52.23
45253;BME280;63171;50.520;30.486;2023-09-19T04:33:21;100285.69;;;19.41;52.20